Архив погоды в Бикине

Метеограмма Бикин
Воскресенье, 20 Августа
Время местн. Темп Ветер Видим Явления Облачность нижн/средн/верх Атм. давл. Влжн Точка росы ВНГО R Сост. почвы Tg s
Напр Скр Прв ур.ст ур.м изм
22:00 +21.3° В 1 - 20 км - ясно 753 759 +0.3 87% +19.1° более 2.5 км - - - -
19:00 +29.3° Ю,Ю-З 1 - более 50 км - ясно 752 758 -0.4 56% +19.5° более 2.5 км 0 - - -
16:00 +30.8° З,Ю-З 1 - более 50 км - незначительная облачность 753 759 -1 48% +18.5° 1 км - - - -
13:00 +28.4° Ю-В 2 - более 50 км - незначительная облачность 754 760 -0.8 62% +20.3° 1 км - - - -
10:00 +24.1° В,Ю-В 2 - более 50 км - ясно 755 760 +0.2 74% +19.1° более 2.5 км - - - -
07:00 +20.1° Ю-В 1 - более 50 км - ясно 754 760 +0.3 89% +18.3° более 2.5 км 0 Сухая (без трещин) +18° -
04:00 +18.6° штиль 0 - 20 км - ясно 754 760 -0.2 92% +17.3° более 2.5 км - - - -
01:00 +19.1° С,С-В 1 - 20 км - ясно 754 760 +0.4 92% +17.7° более 2.5 км - - - -
Суббота, 19 Августа
Время местн. Темп Ветер Видим Явления Облачность нижн/средн/верх Атм. давл. Влжн Точка росы ВНГО R Сост. почвы Tg s
Напр Скр Прв ур.ст ур.м изм
22:00 +21.5° В 2 - 20 км - переменная облачность 754 760 +0.8 87% +19.3° более 2.5 км - - - -
19:00 +28.6° З 1 - более 50 км - облачно с прояснениями 753 759 -0.3 56% +19° 1 км 0 - - -
16:00 +29.8° З,Ю-З 1 - более 50 км - переменная облачность 754 759 -1.3 46% +17.1° 1 км - - - -
13:00 +28.6° Ю-З 2 - более 50 км - незначительная облачность 755 761 -0.8 47% +16.3° 1 км - - - -
10:00 +23.6° Ю,Ю-В 1 - 20 км небо без изменений {туман} ясно 756 761 +0.3 76% +19.1° более 2.5 км - - - -
07:00 +18° В 1 - 10 км туман ясно 755 761 +0.5 94% +17.1° более 2.5 км 0 Сухая (без трещин) +17° -
04:00 +16.3° штиль 0 - 20 км - ясно 755 761 -0.2 95% +15.5° более 2.5 км - - - -
01:00 +17.9° В 1 - 20 км - ясно 755 761 +0.2 94% +16.9° более 2.5 км - - - -
Пятница, 18 Августа
Время местн. Темп Ветер Видим Явления Облачность нижн/средн/верх Атм. давл. Влжн Точка росы ВНГО R Сост. почвы Tg s
Напр Скр Прв ур.ст ур.м изм
22:00 +19.7° В 1 - 20 км - ясно 755 761 +0.8 89% +17.8° более 2.5 км - - - -
19:00 +26.6° С 1 - более 50 км - ясно 754 760 -0.2 56% +17.2° более 2.5 км 0 - - -
16:00 +28.2° С-З 1 - более 50 км - переменная облачность 754 760 -0.8 48% +16° 1 км - - - -
13:00 +26° З,Ю-З 2 - более 50 км - переменная облачность 755 761 -0.8 59% +17.4° 1 км - - - -
10:00 +20.1° З 1 - 10 км туман незначительная облачность 756 762 +0.5 84% +17.4° более 2.5 км - - - -
07:00 +14.9° штиль 0 - 50 м туман неба не видно 755 761 +0.4 97% +14.4° - 0.1 Влажная (без луж) +15° -
04:00 +14.6° штиль 0 - 500 м туман усиливается неба не видно 755 761 +0.2 96% +14° - - - - -
01:00 +15° штиль 0 - 20 км - ясно 755 761 +0.2 95% +14.2° более 2.5 км - - - -
Четверг, 17 Августа
Время местн. Темп Ветер Видим Явления Облачность нижн/средн/верх Атм. давл. Влжн Точка росы ВНГО R Сост. почвы Tg s
Напр Скр Прв ур.ст ур.м изм
22:00 +18.3° штиль 0 - 20 км - ясно 755 760 +0.5 92% +16.9° более 2.5 км - - - -
19:00 +23.6° С 2 - более 50 км - незначительная облачность 754 760 -0.2 67% +17.1° 1 км 0 - - -